sensor_id;sensor_type;location;lat;lon;timestamp;pressure;altitude;pressure_sealevel;temperature;humidity
39487;BME280;25173;50.430;18.926;2023-06-26T00:02:17;98297.63;;;18.01;59.62
39487;BME280;25173;50.430;18.926;2023-06-26T00:05:18;98300.06;;;18.02;59.62
39487;BME280;25173;50.430;18.926;2023-06-26T00:08:18;98298.44;;;18.01;59.63
39487;BME280;25173;50.430;18.926;2023-06-26T00:11:20;98299.09;;;17.98;59.63
39487;BME280;25173;50.430;18.926;2023-06-26T00:14:20;98302.81;;;17.94;59.62
39487;BME280;25173;50.430;18.926;2023-06-26T00:17:21;98302.00;;;17.93;59.78
39487;BME280;25173;50.430;18.926;2023-06-26T00:20:22;98303.13;;;17.92;59.68
39487;BME280;25173;50.430;18.926;2023-06-26T00:23:23;98299.38;;;17.88;59.79
39487;BME280;25173;50.430;18.926;2023-06-26T00:26:24;98298.88;;;17.86;60.05
39487;BME280;25173;50.430;18.926;2023-06-26T00:29:25;98300.03;;;17.85;60.18
39487;BME280;25173;50.430;18.926;2023-06-26T00:32:25;98297.28;;;17.85;60.07
39487;BME280;25173;50.430;18.926;2023-06-26T00:35:26;98292.09;;;17.83;60.24
39487;BME280;25173;50.430;18.926;2023-06-26T00:38:26;98300.03;;;17.85;60.24
39487;BME280;25173;50.430;18.926;2023-06-26T00:41:27;98296.28;;;17.81;59.93
39487;BME280;25173;50.430;18.926;2023-06-26T00:44:27;98291.72;;;17.76;60.23
39487;BME280;25173;50.430;18.926;2023-06-26T00:47:28;98295.09;;;17.73;60.01
39487;BME280;25173;50.430;18.926;2023-06-26T00:50:29;98289.75;;;17.68;59.99
39487;BME280;25173;50.430;18.926;2023-06-26T00:53:31;98292.00;;;17.66;60.25
39487;BME280;25173;50.430;18.926;2023-06-26T00:56:32;98279.66;;;17.64;60.32
39487;BME280;25173;50.430;18.926;2023-06-26T00:59:34;98289.38;;;17.61;60.40
39487;BME280;25173;50.430;18.926;2023-06-26T01:02:34;98286.91;;;17.60;60.32
39487;BME280;25173;50.430;18.926;2023-06-26T01:05:36;98293.56;;;17.59;60.23
39487;BME280;25173;50.430;18.926;2023-06-26T01:08:37;98283.97;;;17.56;60.06
39487;BME280;25173;50.430;18.926;2023-06-26T01:11:38;98281.56;;;17.55;60.59
39487;BME280;25173;50.430;18.926;2023-06-26T01:14:39;98286.88;;;17.51;60.81
39487;BME280;25173;50.430;18.926;2023-06-26T01:17:40;98278.44;;;17.48;60.99
39487;BME280;25173;50.430;18.926;2023-06-26T01:20:45;98286.19;;;17.45;60.93
39487;BME280;25173;50.430;18.926;2023-06-26T01:23:55;98284.88;;;17.43;60.66
39487;BME280;25173;50.430;18.926;2023-06-26T01:26:59;98276.75;;;17.38;61.16
39487;BME280;25173;50.430;18.926;2023-06-26T01:30:02;98275.13;;;17.37;61.21
39487;BME280;25173;50.430;18.926;2023-06-26T01:33:05;98272.22;;;17.33;61.83
39487;BME280;25173;50.430;18.926;2023-06-26T01:36:06;98276.72;;;17.29;61.89
39487;BME280;25173;50.430;18.926;2023-06-26T01:39:09;98261.16;;;17.25;61.79
39487;BME280;25173;50.430;18.926;2023-06-26T01:42:09;98263.91;;;17.25;61.51
39487;BME280;25173;50.430;18.926;2023-06-26T01:45:22;98263.09;;;17.24;61.72
39487;BME280;25173;50.430;18.926;2023-06-26T01:48:30;98274.09;;;17.24;61.69
39487;BME280;25173;50.430;18.926;2023-06-26T01:51:35;98260.94;;;17.21;61.90
39487;BME280;25173;50.430;18.926;2023-06-26T01:54:45;98262.06;;;17.20;62.07
39487;BME280;25173;50.430;18.926;2023-06-26T01:57:47;98263.53;;;17.18;61.89
39487;BME280;25173;50.430;18.926;2023-06-26T02:00:48;98262.22;;;17.15;61.69
39487;BME280;25173;50.430;18.926;2023-06-26T02:03:49;98265.59;;;17.12;61.63
39487;BME280;25173;50.430;18.926;2023-06-26T02:06:49;98265.72;;;17.07;61.62
39487;BME280;25173;50.430;18.926;2023-06-26T02:09:50;98265.03;;;17.01;62.00
39487;BME280;25173;50.430;18.926;2023-06-26T02:12:51;98259.84;;;17.00;61.84
39487;BME280;25173;50.430;18.926;2023-06-26T02:15:52;98259.34;;;16.98;62.01
39487;BME280;25173;50.430;18.926;2023-06-26T02:18:52;98259.69;;;16.96;61.87
39487;BME280;25173;50.430;18.926;2023-06-26T02:21:54;98255.59;;;16.94;61.79
39487;BME280;25173;50.430;18.926;2023-06-26T02:24:54;98256.56;;;16.89;61.69
39487;BME280;25173;50.430;18.926;2023-06-26T02:27:55;98262.16;;;16.84;61.54
39487;BME280;25173;50.430;18.926;2023-06-26T02:30:55;98261.97;;;16.81;61.80
39487;BME280;25173;50.430;18.926;2023-06-26T02:33:58;98256.16;;;16.82;61.97
39487;BME280;25173;50.430;18.926;2023-06-26T02:36:59;98256.47;;;16.81;61.79
39487;BME280;25173;50.430;18.926;2023-06-26T02:40:00;98257.59;;;16.80;61.73
39487;BME280;25173;50.430;18.926;2023-06-26T02:43:01;98258.41;;;16.80;61.94
39487;BME280;25173;50.430;18.926;2023-06-26T02:46:02;98258.91;;;16.82;62.11
39487;BME280;25173;50.430;18.926;2023-06-26T02:49:02;98257.78;;;16.83;62.15
39487;BME280;25173;50.430;18.926;2023-06-26T02:52:03;98262.97;;;16.85;61.91
39487;BME280;25173;50.430;18.926;2023-06-26T02:55:05;98262.47;;;16.83;62.20
39487;BME280;25173;50.430;18.926;2023-06-26T02:58:06;98264.09;;;16.84;62.27
39487;BME280;25173;50.430;18.926;2023-06-26T03:01:07;98261.66;;;16.82;62.12
39487;BME280;25173;50.430;18.926;2023-06-26T03:04:08;98256.97;;;16.83;62.33
39487;BME280;25173;50.430;18.926;2023-06-26T03:07:10;98261.84;;;16.86;62.37
39487;BME280;25173;50.430;18.926;2023-06-26T03:10:12;98254.59;;;16.90;62.50
39487;BME280;25173;50.430;18.926;2023-06-26T03:13:13;98251.22;;;16.93;62.43
39487;BME280;25173;50.430;18.926;2023-06-26T03:16:14;98256.09;;;16.96;62.39
39487;BME280;25173;50.430;18.926;2023-06-26T03:19:14;98255.47;;;16.99;62.56
39487;BME280;25173;50.430;18.926;2023-06-26T03:22:38;98260.84;;;17.04;62.61
39487;BME280;25173;50.430;18.926;2023-06-26T03:25:39;98251.34;;;17.10;62.76
39487;BME280;25173;50.430;18.926;2023-06-26T03:28:59;98258.84;;;17.18;62.60
39487;BME280;25173;50.430;18.926;2023-06-26T03:32:01;98265.03;;;17.24;62.78
39487;BME280;25173;50.430;18.926;2023-06-26T03:35:01;98262.31;;;17.32;62.61
39487;BME280;25173;50.430;18.926;2023-06-26T03:38:04;98263.31;;;17.36;62.72
39487;BME280;25173;50.430;18.926;2023-06-26T03:41:06;98258.47;;;17.42;62.86
39487;BME280;25173;50.430;18.926;2023-06-26T03:44:07;98262.53;;;17.44;62.97
39487;BME280;25173;50.430;18.926;2023-06-26T03:47:16;98265.97;;;17.50;63.07
39487;BME280;25173;50.430;18.926;2023-06-26T03:50:17;98256.13;;;17.58;63.20
39487;BME280;25173;50.430;18.926;2023-06-26T03:53:18;98259.13;;;17.70;63.31
39487;BME280;25173;50.430;18.926;2023-06-26T03:56:19;98259.84;;;17.84;63.36
39487;BME280;25173;50.430;18.926;2023-06-26T03:59:19;98255.81;;;17.99;63.27
39487;BME280;25173;50.430;18.926;2023-06-26T04:02:20;98255.69;;;18.12;63.42
39487;BME280;25173;50.430;18.926;2023-06-26T04:05:20;98261.69;;;18.23;63.70
39487;BME280;25173;50.430;18.926;2023-06-26T04:08:23;98252.50;;;18.36;63.97
39487;BME280;25173;50.430;18.926;2023-06-26T04:11:26;98249.09;;;18.48;63.93
39487;BME280;25173;50.430;18.926;2023-06-26T04:14:27;98251.72;;;18.61;64.29
39487;BME280;25173;50.430;18.926;2023-06-26T04:17:28;98249.78;;;18.79;64.19
39487;BME280;25173;50.430;18.926;2023-06-26T04:20:28;98256.44;;;18.95;64.60
39487;BME280;25173;50.430;18.926;2023-06-26T04:23:29;98254.78;;;19.12;64.69
39487;BME280;25173;50.430;18.926;2023-06-26T04:26:31;98250.69;;;19.26;64.38
39487;BME280;25173;50.430;18.926;2023-06-26T04:29:31;98249.69;;;19.39;63.84
39487;BME280;25173;50.430;18.926;2023-06-26T04:32:32;98245.75;;;19.49;63.30
39487;BME280;25173;50.430;18.926;2023-06-26T04:35:32;98238.41;;;19.62;63.38
39487;BME280;25173;50.430;18.926;2023-06-26T04:38:36;98241.91;;;19.80;62.48
39487;BME280;25173;50.430;18.926;2023-06-26T04:41:37;98245.44;;;19.89;61.92
39487;BME280;25173;50.430;18.926;2023-06-26T04:44:38;98251.59;;;19.94;61.59
39487;BME280;25173;50.430;18.926;2023-06-26T04:47:38;98250.13;;;19.97;61.39
39487;BME280;25173;50.430;18.926;2023-06-26T04:50:40;98250.06;;;20.05;60.79
39487;BME280;25173;50.430;18.926;2023-06-26T04:53:40;98258.03;;;20.07;60.78
39487;BME280;25173;50.430;18.926;2023-06-26T04:56:41;98255.19;;;20.15;60.66
39487;BME280;25173;50.430;18.926;2023-06-26T04:59:41;98254.50;;;20.27;60.55
39487;BME280;25173;50.430;18.926;2023-06-26T05:02:42;98253.66;;;20.35;60.14
39487;BME280;25173;50.430;18.926;2023-06-26T05:05:43;98255.56;;;20.43;60.34
39487;BME280;25173;50.430;18.926;2023-06-26T05:08:44;98248.94;;;20.57;59.81
39487;BME280;25173;50.430;18.926;2023-06-26T05:11:45;98255.91;;;20.63;59.59
39487;BME280;25173;50.430;18.926;2023-06-26T05:14:45;98255.03;;;20.71;59.44
39487;BME280;25173;50.430;18.926;2023-06-26T05:17:46;98246.75;;;20.83;58.95
39487;BME280;25173;50.430;18.926;2023-06-26T05:20:47;98257.22;;;20.98;58.72
39487;BME280;25173;50.430;18.926;2023-06-26T05:23:49;98258.09;;;21.11;58.57
39487;BME280;25173;50.430;18.926;2023-06-26T05:26:50;98256.06;;;21.20;58.35
39487;BME280;25173;50.430;18.926;2023-06-26T05:29:51;98254.59;;;21.35;58.07
39487;BME280;25173;50.430;18.926;2023-06-26T05:32:53;98262.16;;;21.46;57.54
39487;BME280;25173;50.430;18.926;2023-06-26T05:35:54;98251.66;;;21.52;57.19
39487;BME280;25173;50.430;18.926;2023-06-26T05:38:55;98249.25;;;21.62;57.32
39487;BME280;25173;50.430;18.926;2023-06-26T05:41:57;98255.63;;;21.75;57.02
39487;BME280;25173;50.430;18.926;2023-06-26T05:44:58;98256.09;;;21.89;57.32
39487;BME280;25173;50.430;18.926;2023-06-26T05:47:59;98258.06;;;22.01;57.00
39487;BME280;25173;50.430;18.926;2023-06-26T05:51:00;98257.28;;;22.13;56.79
39487;BME280;25173;50.430;18.926;2023-06-26T05:54:00;98254.03;;;22.23;56.53
39487;BME280;25173;50.430;18.926;2023-06-26T05:57:01;98257.94;;;22.34;56.91
39487;BME280;25173;50.430;18.926;2023-06-26T06:00:03;98248.44;;;22.47;56.87
39487;BME280;25173;50.430;18.926;2023-06-26T06:03:13;98256.03;;;22.62;56.87
39487;BME280;25173;50.430;18.926;2023-06-26T06:06:14;98252.78;;;22.72;56.19
39487;BME280;25173;50.430;18.926;2023-06-26T06:09:16;98250.00;;;22.84;56.02
39487;BME280;25173;50.430;18.926;2023-06-26T06:12:17;98251.56;;;22.98;56.08
39487;BME280;25173;50.430;18.926;2023-06-26T06:15:18;98246.31;;;23.08;55.33
39487;BME280;25173;50.430;18.926;2023-06-26T06:18:18;98240.25;;;23.18;55.30
39487;BME280;25173;50.430;18.926;2023-06-26T06:21:19;98242.16;;;23.30;54.76
39487;BME280;25173;50.430;18.926;2023-06-26T06:24:20;98241.19;;;23.38;55.15
39487;BME280;25173;50.430;18.926;2023-06-26T06:27:20;98244.28;;;23.49;55.57
39487;BME280;25173;50.430;18.926;2023-06-26T06:30:21;98248.50;;;23.58;54.78
39487;BME280;25173;50.430;18.926;2023-06-26T06:33:22;98247.63;;;23.70;54.82
39487;BME280;25173;50.430;18.926;2023-06-26T06:36:22;98247.16;;;23.84;54.94
39487;BME280;25173;50.430;18.926;2023-06-26T06:39:23;98251.91;;;23.99;54.86
39487;BME280;25173;50.430;18.926;2023-06-26T06:42:23;98249.47;;;24.13;54.31
39487;BME280;25173;50.430;18.926;2023-06-26T06:45:24;98250.56;;;24.24;53.30
39487;BME280;25173;50.430;18.926;2023-06-26T06:48:24;98250.00;;;24.34;52.27
39487;BME280;25173;50.430;18.926;2023-06-26T06:51:25;98260.69;;;24.32;51.81
39487;BME280;25173;50.430;18.926;2023-06-26T06:54:26;98258.25;;;24.31;51.33
39487;BME280;25173;50.430;18.926;2023-06-26T06:57:27;98258.44;;;24.38;50.94
39487;BME280;25173;50.430;18.926;2023-06-26T07:00:28;98259.97;;;24.35;50.57
39487;BME280;25173;50.430;18.926;2023-06-26T07:03:29;98253.66;;;24.38;50.38
39487;BME280;25173;50.430;18.926;2023-06-26T07:06:30;98255.03;;;24.45;50.32
39487;BME280;25173;50.430;18.926;2023-06-26T07:09:30;98243.25;;;24.51;49.73
39487;BME280;25173;50.430;18.926;2023-06-26T07:12:31;98254.91;;;24.57;49.88
39487;BME280;25173;50.430;18.926;2023-06-26T07:15:31;98252.97;;;24.61;50.30
39487;BME280;25173;50.430;18.926;2023-06-26T07:18:32;98245.81;;;24.60;49.49
39487;BME280;25173;50.430;18.926;2023-06-26T07:21:33;98243.09;;;24.63;49.53
39487;BME280;25173;50.430;18.926;2023-06-26T07:24:33;98247.22;;;24.69;49.83
39487;BME280;25173;50.430;18.926;2023-06-26T07:27:34;98246.13;;;24.74;49.21
39487;BME280;25173;50.430;18.926;2023-06-26T07:30:34;98255.50;;;24.85;49.34
39487;BME280;25173;50.430;18.926;2023-06-26T07:33:35;98250.91;;;24.93;48.98
39487;BME280;25173;50.430;18.926;2023-06-26T07:36:35;98250.34;;;25.03;48.76
39487;BME280;25173;50.430;18.926;2023-06-26T07:39:36;98257.59;;;25.07;48.22
39487;BME280;25173;50.430;18.926;2023-06-26T07:42:37;98251.56;;;25.05;48.22
39487;BME280;25173;50.430;18.926;2023-06-26T07:45:37;98250.53;;;25.13;47.68
39487;BME280;25173;50.430;18.926;2023-06-26T07:48:38;98255.44;;;25.20;47.52
39487;BME280;25173;50.430;18.926;2023-06-26T07:51:38;98248.44;;;25.26;47.61
39487;BME280;25173;50.430;18.926;2023-06-26T07:54:39;98243.34;;;25.32;47.59
39487;BME280;25173;50.430;18.926;2023-06-26T07:57:40;98248.63;;;25.37;46.28
39487;BME280;25173;50.430;18.926;2023-06-26T08:00:40;98245.50;;;25.42;46.02
39487;BME280;25173;50.430;18.926;2023-06-26T08:03:41;98244.22;;;25.36;46.11
39487;BME280;25173;50.430;18.926;2023-06-26T08:06:43;98245.25;;;25.28;46.13
39487;BME280;25173;50.430;18.926;2023-06-26T08:09:44;98241.41;;;25.36;45.78
39487;BME280;25173;50.430;18.926;2023-06-26T08:12:45;98242.44;;;25.47;45.39
39487;BME280;25173;50.430;18.926;2023-06-26T08:15:45;98248.31;;;25.61;45.35
39487;BME280;25173;50.430;18.926;2023-06-26T08:18:46;98241.03;;;25.79;45.37
39487;BME280;25173;50.430;18.926;2023-06-26T08:21:47;98238.19;;;25.99;45.06
39487;BME280;25173;50.430;18.926;2023-06-26T08:24:47;98239.97;;;26.10;43.97
39487;BME280;25173;50.430;18.926;2023-06-26T08:27:48;98246.03;;;26.16;44.36
39487;BME280;25173;50.430;18.926;2023-06-26T08:30:48;98238.84;;;26.15;43.99
39487;BME280;25173;50.430;18.926;2023-06-26T08:33:49;98240.03;;;26.14;43.33
39487;BME280;25173;50.430;18.926;2023-06-26T08:36:50;98246.91;;;26.20;43.12
39487;BME280;25173;50.430;18.926;2023-06-26T08:39:50;98238.34;;;26.32;43.82
39487;BME280;25173;50.430;18.926;2023-06-26T08:42:51;98250.34;;;26.62;42.59
39487;BME280;25173;50.430;18.926;2023-06-26T08:45:53;98232.41;;;26.90;42.05
39487;BME280;25173;50.430;18.926;2023-06-26T08:48:55;98237.94;;;27.20;42.04
39487;BME280;25173;50.430;18.926;2023-06-26T08:52:02;98233.16;;;27.54;41.91
39487;BME280;25173;50.430;18.926;2023-06-26T08:55:06;98242.63;;;27.83;40.86
39487;BME280;25173;50.430;18.926;2023-06-26T08:58:10;98226.78;;;28.01;40.72
39487;BME280;25173;50.430;18.926;2023-06-26T09:01:12;98224.94;;;28.19;40.54
39487;BME280;25173;50.430;18.926;2023-06-26T09:04:13;98224.97;;;28.26;40.79
39487;BME280;25173;50.430;18.926;2023-06-26T09:07:15;98220.59;;;28.29;40.66
39487;BME280;25173;50.430;18.926;2023-06-26T09:10:15;98228.63;;;28.30;39.91
39487;BME280;25173;50.430;18.926;2023-06-26T09:13:16;98240.59;;;28.27;40.29
39487;BME280;25173;50.430;18.926;2023-06-26T09:16:17;98228.03;;;28.10;40.19
39487;BME280;25173;50.430;18.926;2023-06-26T09:19:17;98232.28;;;27.94;40.52
39487;BME280;25173;50.430;18.926;2023-06-26T09:22:18;98233.09;;;27.91;40.52
39487;BME280;25173;50.430;18.926;2023-06-26T09:25:19;98227.59;;;28.05;40.66
39487;BME280;25173;50.430;18.926;2023-06-26T09:28:22;98228.47;;;28.12;39.71
39487;BME280;25173;50.430;18.926;2023-06-26T09:31:23;98224.56;;;28.24;40.18
39487;BME280;25173;50.430;18.926;2023-06-26T09:34:30;98221.53;;;28.50;39.45
39487;BME280;25173;50.430;18.926;2023-06-26T09:37:32;98219.63;;;28.69;39.88
39487;BME280;25173;50.430;18.926;2023-06-26T09:40:33;98224.91;;;28.77;39.53
39487;BME280;25173;50.430;18.926;2023-06-26T09:43:45;98220.88;;;28.75;38.70
39487;BME280;25173;50.430;18.926;2023-06-26T09:46:46;98223.31;;;28.76;38.83
39487;BME280;25173;50.430;18.926;2023-06-26T09:49:47;98221.31;;;28.77;39.30
39487;BME280;25173;50.430;18.926;2023-06-26T09:52:47;98217.63;;;28.66;38.61
39487;BME280;25173;50.430;18.926;2023-06-26T09:55:51;98215.13;;;28.53;39.29
39487;BME280;25173;50.430;18.926;2023-06-26T09:58:52;98210.31;;;28.47;39.68
39487;BME280;25173;50.430;18.926;2023-06-26T10:01:59;98208.31;;;28.44;38.72
39487;BME280;25173;50.430;18.926;2023-06-26T10:04:59;98209.06;;;28.37;39.24
39487;BME280;25173;50.430;18.926;2023-06-26T10:08:00;98206.31;;;28.44;38.96
39487;BME280;25173;50.430;18.926;2023-06-26T10:11:02;98211.88;;;28.37;37.98
39487;BME280;25173;50.430;18.926;2023-06-26T10:14:04;98215.81;;;28.29;39.07
39487;BME280;25173;50.430;18.926;2023-06-26T10:17:10;98202.81;;;28.07;40.01
39487;BME280;25173;50.430;18.926;2023-06-26T10:20:11;98196.84;;;28.12;39.66
39487;BME280;25173;50.430;18.926;2023-06-26T10:23:14;98192.00;;;28.09;39.21
39487;BME280;25173;50.430;18.926;2023-06-26T10:26:16;98185.66;;;28.12;39.14
39487;BME280;25173;50.430;18.926;2023-06-26T10:29:17;98182.03;;;28.08;39.16
39487;BME280;25173;50.430;18.926;2023-06-26T10:32:20;98190.06;;;28.13;38.45
39487;BME280;25173;50.430;18.926;2023-06-26T10:35:21;98191.78;;;28.28;39.03
39487;BME280;25173;50.430;18.926;2023-06-26T10:38:49;98180.69;;;28.49;37.01
39487;BME280;25173;50.430;18.926;2023-06-26T10:41:54;98171.16;;;28.65;38.43
39487;BME280;25173;50.430;18.926;2023-06-26T10:45:09;98171.69;;;28.91;38.10
39487;BME280;25173;50.430;18.926;2023-06-26T10:48:13;98169.41;;;29.29;38.02
39487;BME280;25173;50.430;18.926;2023-06-26T10:51:14;98155.84;;;29.59;37.37
39487;BME280;25173;50.430;18.926;2023-06-26T10:54:16;98165.06;;;29.81;36.73
39487;BME280;25173;50.430;18.926;2023-06-26T10:57:23;98163.47;;;29.98;36.13
39487;BME280;25173;50.430;18.926;2023-06-26T11:00:25;98167.50;;;29.97;36.38
39487;BME280;25173;50.430;18.926;2023-06-26T11:03:29;98167.47;;;30.04;36.35
39487;BME280;25173;50.430;18.926;2023-06-26T11:06:31;98165.47;;;30.08;35.20
39487;BME280;25173;50.430;18.926;2023-06-26T11:09:56;98162.69;;;29.97;35.73
39487;BME280;25173;50.430;18.926;2023-06-26T11:12:57;98162.66;;;29.69;36.97
39487;BME280;25173;50.430;18.926;2023-06-26T11:15:58;98157.00;;;29.37;36.69
39487;BME280;25173;50.430;18.926;2023-06-26T11:18:59;98163.38;;;29.23;37.16
39487;BME280;25173;50.430;18.926;2023-06-26T11:22:02;98164.56;;;29.22;37.32
39487;BME280;25173;50.430;18.926;2023-06-26T11:25:05;98155.34;;;29.22;36.97
39487;BME280;25173;50.430;18.926;2023-06-26T11:28:09;98151.44;;;29.41;37.22
39487;BME280;25173;50.430;18.926;2023-06-26T11:34:32;98149.81;;;29.64;38.58
39487;BME280;25173;50.430;18.926;2023-06-26T11:37:34;98142.59;;;29.88;36.62
39487;BME280;25173;50.430;18.926;2023-06-26T11:40:35;98143.03;;;30.01;35.91
39487;BME280;25173;50.430;18.926;2023-06-26T11:43:36;98137.34;;;30.29;37.14
39487;BME280;25173;50.430;18.926;2023-06-26T11:46:37;98139.25;;;30.64;36.19
39487;BME280;25173;50.430;18.926;2023-06-26T11:49:38;98137.44;;;31.09;35.38
39487;BME280;25173;50.430;18.926;2023-06-26T11:52:42;98137.31;;;31.34;34.43
39487;BME280;25173;50.430;18.926;2023-06-26T11:55:42;98140.66;;;31.70;34.26
39487;BME280;25173;50.430;18.926;2023-06-26T11:59:00;98127.06;;;32.03;32.54
39487;BME280;25173;50.430;18.926;2023-06-26T12:02:06;98138.84;;;32.35;33.03
39487;BME280;25173;50.430;18.926;2023-06-26T12:05:07;98130.94;;;32.57;32.15
39487;BME280;25173;50.430;18.926;2023-06-26T12:08:08;98128.88;;;32.95;32.52
39487;BME280;25173;50.430;18.926;2023-06-26T12:11:10;98123.84;;;33.36;31.78
39487;BME280;25173;50.430;18.926;2023-06-26T12:14:11;98115.19;;;33.24;31.68
39487;BME280;25173;50.430;18.926;2023-06-26T12:17:13;98117.50;;;33.29;32.08
39487;BME280;25173;50.430;18.926;2023-06-26T12:20:23;98123.22;;;33.25;31.37
39487;BME280;25173;50.430;18.926;2023-06-26T12:23:41;98115.28;;;33.43;31.59
39487;BME280;25173;50.430;18.926;2023-06-26T12:26:43;98115.19;;;33.74;31.93
39487;BME280;25173;50.430;18.926;2023-06-26T12:29:52;98109.53;;;33.97;31.49
39487;BME280;25173;50.430;18.926;2023-06-26T12:32:53;98112.41;;;34.17;31.47
39487;BME280;25173;50.430;18.926;2023-06-26T12:35:55;98107.91;;;34.19;31.40
39487;BME280;25173;50.430;18.926;2023-06-26T12:39:00;98116.97;;;34.11;30.56
39487;BME280;25173;50.430;18.926;2023-06-26T12:42:01;98107.66;;;33.90;30.98
39487;BME280;25173;50.430;18.926;2023-06-26T12:45:10;98109.13;;;34.18;30.66
39487;BME280;25173;50.430;18.926;2023-06-26T12:48:14;98113.19;;;34.41;31.33
39487;BME280;25173;50.430;18.926;2023-06-26T12:51:16;98105.38;;;34.68;31.03
39487;BME280;25173;50.430;18.926;2023-06-26T12:54:17;98107.59;;;34.77;30.61
39487;BME280;25173;50.430;18.926;2023-06-26T12:57:18;98103.19;;;34.56;31.00
39487;BME280;25173;50.430;18.926;2023-06-26T13:00:18;98100.56;;;34.65;30.99
39487;BME280;25173;50.430;18.926;2023-06-26T13:03:19;98099.69;;;34.68;30.28
39487;BME280;25173;50.430;18.926;2023-06-26T13:06:21;98104.88;;;34.73;29.48
39487;BME280;25173;50.430;18.926;2023-06-26T13:09:22;98095.13;;;34.54;29.32
39487;BME280;25173;50.430;18.926;2023-06-26T13:12:24;98090.38;;;34.08;29.51
39487;BME280;25173;50.430;18.926;2023-06-26T13:15:24;98086.22;;;33.93;30.10
39487;BME280;25173;50.430;18.926;2023-06-26T13:18:25;98090.69;;;33.90;29.84
39487;BME280;25173;50.430;18.926;2023-06-26T13:21:26;98084.63;;;34.12;29.92
39487;BME280;25173;50.430;18.926;2023-06-26T13:24:27;98092.78;;;34.69;29.72
39487;BME280;25173;50.430;18.926;2023-06-26T13:27:27;98089.53;;;35.42;28.99
39487;BME280;25173;50.430;18.926;2023-06-26T13:30:28;98087.34;;;35.83;28.55
39487;BME280;25173;50.430;18.926;2023-06-26T13:33:30;98078.88;;;36.11;28.22
39487;BME280;25173;50.430;18.926;2023-06-26T13:36:31;98080.38;;;36.16;28.06
39487;BME280;25173;50.430;18.926;2023-06-26T13:39:35;98089.53;;;35.91;28.03
39487;BME280;25173;50.430;18.926;2023-06-26T13:42:35;98079.34;;;35.45;28.44
39487;BME280;25173;50.430;18.926;2023-06-26T13:45:36;98070.38;;;35.14;28.66
39487;BME280;25173;50.430;18.926;2023-06-26T13:48:37;98071.59;;;34.97;29.05
39487;BME280;25173;50.430;18.926;2023-06-26T13:51:38;98068.78;;;34.77;28.84
39487;BME280;25173;50.430;18.926;2023-06-26T13:54:39;98074.22;;;34.48;28.64
39487;BME280;25173;50.430;18.926;2023-06-26T13:57:40;98055.78;;;34.01;29.28
39487;BME280;25173;50.430;18.926;2023-06-26T14:00:41;98064.63;;;33.56;29.73
39487;BME280;25173;50.430;18.926;2023-06-26T14:03:44;98052.56;;;33.02;29.86
39487;BME280;25173;50.430;18.926;2023-06-26T14:06:45;98046.72;;;33.16;30.40
39487;BME280;25173;50.430;18.926;2023-06-26T14:09:45;98041.31;;;33.75;30.41
39487;BME280;25173;50.430;18.926;2023-06-26T14:12:46;98039.34;;;34.91;29.61
39487;BME280;25173;50.430;18.926;2023-06-26T14:15:47;98035.34;;;35.73;28.99
39487;BME280;25173;50.430;18.926;2023-06-26T14:18:48;98038.19;;;36.18;27.36
39487;BME280;25173;50.430;18.926;2023-06-26T14:21:48;98035.06;;;36.29;27.51
39487;BME280;25173;50.430;18.926;2023-06-26T14:24:49;98025.78;;;36.53;27.36
39487;BME280;25173;50.430;18.926;2023-06-26T14:27:49;98021.47;;;36.90;27.45
39487;BME280;25173;50.430;18.926;2023-06-26T14:30:50;98028.63;;;37.80;26.64
39487;BME280;25173;50.430;18.926;2023-06-26T14:33:51;98024.47;;;38.72;25.78
39487;BME280;25173;50.430;18.926;2023-06-26T14:36:51;98013.69;;;39.38;25.31
39487;BME280;25173;50.430;18.926;2023-06-26T14:39:52;98005.72;;;40.00;25.07
39487;BME280;25173;50.430;18.926;2023-06-26T14:42:53;97999.31;;;40.60;25.06
39487;BME280;25173;50.430;18.926;2023-06-26T14:45:53;98000.00;;;40.97;24.23
39487;BME280;25173;50.430;18.926;2023-06-26T14:48:54;97995.94;;;40.61;24.09
39487;BME280;25173;50.430;18.926;2023-06-26T14:51:56;97993.00;;;40.19;24.03
39487;BME280;25173;50.430;18.926;2023-06-26T14:54:56;97997.47;;;40.29;24.03
39487;BME280;25173;50.430;18.926;2023-06-26T14:57:57;97991.03;;;40.71;23.80
39487;BME280;25173;50.430;18.926;2023-06-26T15:00:58;97988.50;;;40.55;23.40
39487;BME280;25173;50.430;18.926;2023-06-26T15:03:58;97983.91;;;40.76;23.53
39487;BME280;25173;50.430;18.926;2023-06-26T15:06:59;97976.16;;;40.67;22.94
39487;BME280;25173;50.430;18.926;2023-06-26T15:10:00;97971.84;;;40.71;23.16
39487;BME280;25173;50.430;18.926;2023-06-26T15:13:00;97969.28;;;41.06;23.34
39487;BME280;25173;50.430;18.926;2023-06-26T15:16:01;97962.53;;;41.75;22.80
39487;BME280;25173;50.430;18.926;2023-06-26T15:19:01;97968.38;;;41.81;22.00
39487;BME280;25173;50.430;18.926;2023-06-26T15:22:02;97962.28;;;41.17;22.10
39487;BME280;25173;50.430;18.926;2023-06-26T15:25:03;97956.94;;;41.00;22.52
39487;BME280;25173;50.430;18.926;2023-06-26T15:28:05;97961.41;;;41.34;21.92
39487;BME280;25173;50.430;18.926;2023-06-26T15:31:06;97957.88;;;41.63;21.96
39487;BME280;25173;50.430;18.926;2023-06-26T15:34:07;97962.84;;;42.01;21.78
39487;BME280;25173;50.430;18.926;2023-06-26T15:37:08;97955.06;;;42.31;21.48
39487;BME280;25173;50.430;18.926;2023-06-26T15:40:09;97958.19;;;42.04;21.11
39487;BME280;25173;50.430;18.926;2023-06-26T15:43:11;97954.81;;;41.67;21.43
39487;BME280;25173;50.430;18.926;2023-06-26T15:46:12;97946.16;;;41.76;21.69
39487;BME280;25173;50.430;18.926;2023-06-26T15:49:12;97941.38;;;41.97;22.02
39487;BME280;25173;50.430;18.926;2023-06-26T15:52:13;97950.59;;;42.15;21.27
39487;BME280;25173;50.430;18.926;2023-06-26T15:55:15;97934.13;;;41.72;21.61